Relevés horaires Koksijde (Belgique)


Relevés horaires à Koksijde - Jeudi 25 Févr. 2016
Heure UTC1 Température [°C] Vent [km/h] Hum. [%] Pres.4 [hPa] Visi. [Km] Nébu. [octa] Préc.5 [mm] Cond.
2m. Res. Ros. Dir.2 Vit. Moy. Raf.3
23:00 2.7 2.7 -- NNO 1.9 3.7 5.6 -- 1016.3(-0.2/3h) 18 7/8 -- --
22:00 3.1 3.1 -1.4 NNO 1.9 3.7 5.6 72 1016.7(0.0/3h) 18 6/8 -- --
21:00 3.0 3.0 -0.3 NNO 1.9 0.0 0.0 79 1016.7(0.2/3h) 20 6/8 -- --
20:00 4.0 4.0 -2.7 NNO 1.9 3.7 3.7 62 1016.6(0.4/3h) 20 6/8 -- --
19:00 3.7 3.7 -3.0 NNO 1.9 3.7 5.6 61 1016.7(0.5/3h) 20 7/8 -- --
18:00 4.4 4.4 -1.2 NNO 3.7 -- -- 67 1016.6(0.4/3h) 20 7/8 0/0h
--
17:00 4.5 3.3 -0.3 NNO 5.6 7.4 9.3 71 1016.2(0.0/3h) 20 7/8 -- --
16:00 5.0 3.3 0.1 NNO 7.4 9.3 13.0 71 1016.2(-0.1/3h) 18 7/8 -- --
15:00 5.6 3.5 0.8 ONO 9.3 11.1 16.7 71 1016.2(-0.2/3h) 18 5/8 -- --
14:00 5.2 3.1 0.8 ONO 9.3 11.1 14.8 73 1016.2(-0.2/3h) 16 7/8 -- --
13:00 5.3 2.8 1.0 ONO 11.1 11.1 16.7 74 1016.2(0.0/3h) 18 6/8 -- --
12:00 5.3 3.2 1.1 ONO 9.3 13.0 16.7 74 1016.3(0.2/3h) 20 7/8 0/0h
--
11:00 5.5 3.4 -1.2 ONO 9.3 9.3 14.8 62 1016.5(0.6/3h) 20 7/8 -- --
10:00 5.0 3.3 0.6 ONO 7.4 7.4 11.1 73 1016.2(0.8/3h) 18 7/8 -- --
09:00 4.4 4.4 1.3 OSO 3.7 3.7 5.6 80 1016.3(1.0/3h) 15 6/8 -- --
08:00 0.8 0.8 -- SSO 3.7 3.7 3.7 -- 1015.8(0.6/3h) 10 4/8 -- --
07:00 0.1 0.1 -0.6 NNO 3.7 3.7 3.7 95 1015.3(0.5/3h) 9 3/8 -- --
06:00 0.3 0.3 -0.3 SO 3.7 -- -- 96 1015.2(0.3/3h) 8 2/8 0.3/12h
--
05:00 0.7 0.7 -0.2 SO 3.7 3.7 7.4 94 1015.2(0.0/3h) 8 2/8 -- --
04:00 1.4 1.4 0.4 O 3.7 5.6 7.4 93 1014.7(-0.6/3h) 6 5/8 -- --
03:00 1.6 1.6 0.7 NNO 1.9 3.7 5.6 94 1014.7(-0.8/3h) 8 5/8 -- --
02:00 1.5 1.5 0.8 NNO 1.9 1.9 3.7 95 1015.1(-0.3/3h) 8 7/8 -- --
01:00 0.9 0.9 0.3 NNO 1.9 1.9 1.9 96 1015.5(0.0/3h) 8 7/8 -- --
00:00 1.0 1.0 0.2 NNO 1.9 5.6 7.4 94 1015.6(-0.2/3h) 10 7/8 0.3/6h
Nuages se développant

1 Coordinated Universal Time. Actuellement il est 02:00 locale et 00:00 UTC.

2 Le vent souffle depuis la direction indiquée vers la direction oposée.

3 Les rafales max. sont disponible 40 min après l'heure du relevé.

4 Pour les stations d'altitude (plus de 600m) le géopotentiel du niveau le plus proche de la pression obligatoire est indiqué.

5 Les stations disposant d'un diffuseur peuvent indiquer "trace". Cela signifie que des précipitations ont touchés le sol mais que la quantité est inférieure à 0.1 mm.

Récapitulatif de la journée
Température [°C] Vent [km/h] Ensoleillement4 [h] Precipitations totale5 [mm] Pression [Hpa]
Min1 Max.2 Moy.3 Max. Min Max.
0.3 6.5 5.8 16.7 0 h 0 min 0 1014.7 1016.7

1 Température minimale relevée entre 18:00 UTC la veille et 18:00 UTC le jour donné.

2 Température maximale relevée entre 06:00 UTC le jour donné et 06:00 UTC le lendemain.

3 Vent moyen de la journée basé sur les relevés horaires.

4 Ensoleillement en heures relevé entre 06:00 UTC la veille et 06:00 UTC le jour donné.

5 Précipitations totales tombées entre 06:00 UTC la jour donné et 06:00 UTC le lendemain.

Graphiques horaires